sensor_id;sensor_type;location;lat;lon;timestamp;P1;durP1;ratioP1;P2;durP2;ratioP2
3683;SDS011;1858;48.716;9.648;2024-02-21T00:00:42;7.57;;;5.07;;
3683;SDS011;1858;48.716;9.648;2024-02-21T00:03:10;7.53;;;5.03;;
3683;SDS011;1858;48.716;9.648;2024-02-21T00:05:39;10.60;;;5.07;;
3683;SDS011;1858;48.716;9.648;2024-02-21T00:08:07;8.67;;;4.97;;
3683;SDS011;1858;48.716;9.648;2024-02-21T00:10:36;7.47;;;3.80;;
3683;SDS011;1858;48.716;9.648;2024-02-21T00:13:04;12.20;;;5.37;;
3683;SDS011;1858;48.716;9.648;2024-02-21T00:15:32;8.23;;;4.30;;
3683;SDS011;1858;48.716;9.648;2024-02-21T00:18:01;7.43;;;4.20;;
3683;SDS011;1858;48.716;9.648;2024-02-21T00:20:29;7.83;;;5.83;;
3683;SDS011;1858;48.716;9.648;2024-02-21T00:22:57;9.70;;;4.87;;
3683;SDS011;1858;48.716;9.648;2024-02-21T00:25:26;7.10;;;4.70;;
3683;SDS011;1858;48.716;9.648;2024-02-21T00:27:54;8.43;;;6.70;;
3683;SDS011;1858;48.716;9.648;2024-02-21T00:30:23;10.20;;;5.97;;
3683;SDS011;1858;48.716;9.648;2024-02-21T00:32:51;16.27;;;5.20;;
3683;SDS011;1858;48.716;9.648;2024-02-21T00:35:19;7.00;;;5.63;;
3683;SDS011;1858;48.716;9.648;2024-02-21T00:37:48;7.20;;;4.83;;
3683;SDS011;1858;48.716;9.648;2024-02-21T00:40:16;8.10;;;4.57;;
3683;SDS011;1858;48.716;9.648;2024-02-21T00:42:46;8.50;;;5.27;;
3683;SDS011;1858;48.716;9.648;2024-02-21T00:45:15;9.97;;;5.97;;
3683;SDS011;1858;48.716;9.648;2024-02-21T00:47:43;6.00;;;4.57;;
3683;SDS011;1858;48.716;9.648;2024-02-21T00:50:11;13.77;;;6.30;;
3683;SDS011;1858;48.716;9.648;2024-02-21T00:52:40;18.17;;;5.93;;
3683;SDS011;1858;48.716;9.648;2024-02-21T00:55:09;7.60;;;5.60;;
3683;SDS011;1858;48.716;9.648;2024-02-21T00:57:37;10.20;;;7.17;;
3683;SDS011;1858;48.716;9.648;2024-02-21T01:00:06;8.13;;;5.30;;
3683;SDS011;1858;48.716;9.648;2024-02-21T01:02:34;8.50;;;5.40;;
3683;SDS011;1858;48.716;9.648;2024-02-21T01:05:03;11.37;;;5.63;;
3683;SDS011;1858;48.716;9.648;2024-02-21T01:07:32;8.10;;;5.30;;
3683;SDS011;1858;48.716;9.648;2024-02-21T01:10:00;13.00;;;5.83;;
3683;SDS011;1858;48.716;9.648;2024-02-21T01:12:28;9.87;;;6.57;;
3683;SDS011;1858;48.716;9.648;2024-02-21T01:14:57;5.97;;;5.07;;
3683;SDS011;1858;48.716;9.648;2024-02-21T01:17:25;8.40;;;6.27;;
3683;SDS011;1858;48.716;9.648;2024-02-21T01:19:53;9.90;;;5.67;;
3683;SDS011;1858;48.716;9.648;2024-02-21T01:22:22;17.07;;;6.00;;
3683;SDS011;1858;48.716;9.648;2024-02-21T01:24:50;8.77;;;6.13;;
3683;SDS011;1858;48.716;9.648;2024-02-21T01:27:19;7.70;;;5.47;;
3683;SDS011;1858;48.716;9.648;2024-02-21T01:29:47;8.90;;;5.60;;
3683;SDS011;1858;48.716;9.648;2024-02-21T01:32:16;12.90;;;5.03;;
3683;SDS011;1858;48.716;9.648;2024-02-21T01:34:44;9.87;;;6.67;;
3683;SDS011;1858;48.716;9.648;2024-02-21T01:37:13;9.40;;;5.53;;
3683;SDS011;1858;48.716;9.648;2024-02-21T01:39:41;10.60;;;6.17;;
3683;SDS011;1858;48.716;9.648;2024-02-21T01:42:09;10.60;;;5.07;;
3683;SDS011;1858;48.716;9.648;2024-02-21T01:44:38;12.60;;;5.50;;
3683;SDS011;1858;48.716;9.648;2024-02-21T01:47:06;11.40;;;5.67;;
3683;SDS011;1858;48.716;9.648;2024-02-21T01:49:35;6.90;;;5.47;;
3683;SDS011;1858;48.716;9.648;2024-02-21T01:52:04;12.37;;;5.47;;
3683;SDS011;1858;48.716;9.648;2024-02-21T01:54:32;8.53;;;4.87;;
3683;SDS011;1858;48.716;9.648;2024-02-21T01:57:01;8.83;;;5.73;;
3683;SDS011;1858;48.716;9.648;2024-02-21T01:59:30;7.27;;;5.57;;
3683;SDS011;1858;48.716;9.648;2024-02-21T02:01:59;6.83;;;5.57;;
3683;SDS011;1858;48.716;9.648;2024-02-21T02:04:28;8.20;;;5.10;;
3683;SDS011;1858;48.716;9.648;2024-02-21T02:06:57;7.67;;;5.20;;
3683;SDS011;1858;48.716;9.648;2024-02-21T02:09:29;10.20;;;5.93;;
3683;SDS011;1858;48.716;9.648;2024-02-21T02:11:57;8.03;;;5.23;;
3683;SDS011;1858;48.716;9.648;2024-02-21T02:14:26;9.10;;;5.33;;
3683;SDS011;1858;48.716;9.648;2024-02-21T02:16:54;9.23;;;4.87;;
3683;SDS011;1858;48.716;9.648;2024-02-21T02:19:22;5.70;;;4.70;;
3683;SDS011;1858;48.716;9.648;2024-02-21T02:21:51;7.10;;;4.67;;
3683;SDS011;1858;48.716;9.648;2024-02-21T02:24:25;13.17;;;4.30;;
3683;SDS011;1858;48.716;9.648;2024-02-21T02:26:53;10.20;;;4.40;;
3683;SDS011;1858;48.716;9.648;2024-02-21T02:29:22;8.53;;;5.00;;
3683;SDS011;1858;48.716;9.648;2024-02-21T02:31:50;7.80;;;5.10;;
3683;SDS011;1858;48.716;9.648;2024-02-21T02:34:19;6.80;;;4.00;;
3683;SDS011;1858;48.716;9.648;2024-02-21T02:36:47;5.73;;;4.87;;
3683;SDS011;1858;48.716;9.648;2024-02-21T02:39:16;6.97;;;4.73;;
3683;SDS011;1858;48.716;9.648;2024-02-21T02:41:44;9.93;;;5.20;;
3683;SDS011;1858;48.716;9.648;2024-02-21T02:44:12;10.50;;;5.17;;
3683;SDS011;1858;48.716;9.648;2024-02-21T02:46:41;12.20;;;6.07;;
3683;SDS011;1858;48.716;9.648;2024-02-21T02:49:09;7.07;;;5.10;;
3683;SDS011;1858;48.716;9.648;2024-02-21T02:51:41;5.90;;;4.07;;
3683;SDS011;1858;48.716;9.648;2024-02-21T02:54:12;9.83;;;5.87;;
3683;SDS011;1858;48.716;9.648;2024-02-21T02:56:40;17.10;;;5.27;;
3683;SDS011;1858;48.716;9.648;2024-02-21T02:59:08;9.23;;;6.60;;
3683;SDS011;1858;48.716;9.648;2024-02-21T03:04:24;7.93;;;4.27;;
3683;SDS011;1858;48.716;9.648;2024-02-21T03:06:53;6.07;;;4.10;;
3683;SDS011;1858;48.716;9.648;2024-02-21T03:09:21;6.63;;;4.57;;
3683;SDS011;1858;48.716;9.648;2024-02-21T03:11:49;6.00;;;4.20;;
3683;SDS011;1858;48.716;9.648;2024-02-21T03:14:19;10.33;;;5.03;;
3683;SDS011;1858;48.716;9.648;2024-02-21T03:16:47;7.90;;;5.30;;
3683;SDS011;1858;48.716;9.648;2024-02-21T03:19:17;11.50;;;4.73;;
3683;SDS011;1858;48.716;9.648;2024-02-21T03:21:45;9.27;;;5.60;;
3683;SDS011;1858;48.716;9.648;2024-02-21T03:24:14;7.23;;;4.30;;
3683;SDS011;1858;48.716;9.648;2024-02-21T03:26:42;5.77;;;5.03;;
3683;SDS011;1858;48.716;9.648;2024-02-21T03:29:11;7.53;;;3.50;;
3683;SDS011;1858;48.716;9.648;2024-02-21T03:31:39;12.60;;;5.17;;
3683;SDS011;1858;48.716;9.648;2024-02-21T03:34:10;8.73;;;4.23;;
3683;SDS011;1858;48.716;9.648;2024-02-21T03:36:38;8.20;;;4.97;;
3683;SDS011;1858;48.716;9.648;2024-02-21T03:39:06;15.93;;;4.70;;
3683;SDS011;1858;48.716;9.648;2024-02-21T03:41:35;10.80;;;5.10;;
3683;SDS011;1858;48.716;9.648;2024-02-21T03:44:04;9.67;;;4.97;;
3683;SDS011;1858;48.716;9.648;2024-02-21T03:46:32;6.33;;;3.77;;
3683;SDS011;1858;48.716;9.648;2024-02-21T03:49:00;8.50;;;4.50;;
3683;SDS011;1858;48.716;9.648;2024-02-21T03:51:29;9.93;;;4.40;;
3683;SDS011;1858;48.716;9.648;2024-02-21T03:53:58;5.93;;;3.60;;
3683;SDS011;1858;48.716;9.648;2024-02-21T03:56:26;10.50;;;4.37;;
3683;SDS011;1858;48.716;9.648;2024-02-21T03:58:54;7.27;;;4.37;;
3683;SDS011;1858;48.716;9.648;2024-02-21T04:01:23;9.07;;;4.40;;
3683;SDS011;1858;48.716;9.648;2024-02-21T04:03:51;6.40;;;3.80;;
3683;SDS011;1858;48.716;9.648;2024-02-21T04:06:20;5.37;;;3.93;;
3683;SDS011;1858;48.716;9.648;2024-02-21T04:08:48;5.87;;;3.50;;
3683;SDS011;1858;48.716;9.648;2024-02-21T04:11:17;10.20;;;4.17;;
3683;SDS011;1858;48.716;9.648;2024-02-21T04:13:45;5.93;;;4.87;;
3683;SDS011;1858;48.716;9.648;2024-02-21T04:16:16;10.20;;;4.50;;
3683;SDS011;1858;48.716;9.648;2024-02-21T04:18:45;7.67;;;4.70;;
3683;SDS011;1858;48.716;9.648;2024-02-21T04:21:16;5.80;;;4.30;;
3683;SDS011;1858;48.716;9.648;2024-02-21T04:23:45;4.93;;;4.40;;
3683;SDS011;1858;48.716;9.648;2024-02-21T04:26:13;10.13;;;4.60;;
3683;SDS011;1858;48.716;9.648;2024-02-21T04:28:42;5.67;;;3.60;;
3683;SDS011;1858;48.716;9.648;2024-02-21T04:31:11;7.83;;;4.70;;
3683;SDS011;1858;48.716;9.648;2024-02-21T04:33:40;5.93;;;4.10;;
3683;SDS011;1858;48.716;9.648;2024-02-21T04:36:08;12.73;;;4.70;;
3683;SDS011;1858;48.716;9.648;2024-02-21T04:38:36;6.50;;;4.10;;
3683;SDS011;1858;48.716;9.648;2024-02-21T04:41:05;6.43;;;4.47;;
3683;SDS011;1858;48.716;9.648;2024-02-21T04:46:22;10.60;;;4.00;;
3683;SDS011;1858;48.716;9.648;2024-02-21T04:48:50;7.83;;;4.47;;
3683;SDS011;1858;48.716;9.648;2024-02-21T04:51:19;6.20;;;4.73;;
3683;SDS011;1858;48.716;9.648;2024-02-21T04:53:47;8.00;;;4.30;;
3683;SDS011;1858;48.716;9.648;2024-02-21T04:56:16;6.97;;;4.10;;
3683;SDS011;1858;48.716;9.648;2024-02-21T04:58:44;13.63;;;3.53;;
3683;SDS011;1858;48.716;9.648;2024-02-21T05:01:12;10.27;;;4.73;;
3683;SDS011;1858;48.716;9.648;2024-02-21T05:03:41;9.80;;;5.33;;
3683;SDS011;1858;48.716;9.648;2024-02-21T05:06:09;7.00;;;4.50;;
3683;SDS011;1858;48.716;9.648;2024-02-21T05:08:37;9.60;;;4.60;;
3683;SDS011;1858;48.716;9.648;2024-02-21T05:11:06;5.90;;;3.87;;
3683;SDS011;1858;48.716;9.648;2024-02-21T05:13:34;13.27;;;4.20;;
3683;SDS011;1858;48.716;9.648;2024-02-21T05:16:03;5.83;;;3.90;;
3683;SDS011;1858;48.716;9.648;2024-02-21T05:18:32;5.27;;;4.10;;
3683;SDS011;1858;48.716;9.648;2024-02-21T05:21:01;5.00;;;4.10;;
3683;SDS011;1858;48.716;9.648;2024-02-21T05:23:29;6.27;;;3.47;;
3683;SDS011;1858;48.716;9.648;2024-02-21T05:25:57;9.97;;;5.23;;
3683;SDS011;1858;48.716;9.648;2024-02-21T05:28:26;10.00;;;4.53;;
3683;SDS011;1858;48.716;9.648;2024-02-21T05:30:54;6.20;;;4.77;;
3683;SDS011;1858;48.716;9.648;2024-02-21T05:33:23;5.03;;;4.03;;
3683;SDS011;1858;48.716;9.648;2024-02-21T05:35:51;5.77;;;4.30;;
3683;SDS011;1858;48.716;9.648;2024-02-21T05:38:20;7.10;;;4.00;;
3683;SDS011;1858;48.716;9.648;2024-02-21T05:40:48;9.20;;;5.10;;
3683;SDS011;1858;48.716;9.648;2024-02-21T05:43:16;9.20;;;4.93;;
3683;SDS011;1858;48.716;9.648;2024-02-21T05:53:07;5.37;;;3.67;;
3683;SDS011;1858;48.716;9.648;2024-02-21T05:55:37;6.77;;;4.47;;
3683;SDS011;1858;48.716;9.648;2024-02-21T05:58:06;7.43;;;5.20;;
3683;SDS011;1858;48.716;9.648;2024-02-21T06:00:37;7.20;;;5.07;;
3683;SDS011;1858;48.716;9.648;2024-02-21T06:03:05;9.93;;;5.67;;
3683;SDS011;1858;48.716;9.648;2024-02-21T06:05:37;9.73;;;5.10;;
3683;SDS011;1858;48.716;9.648;2024-02-21T06:08:05;6.70;;;4.77;;
3683;SDS011;1858;48.716;9.648;2024-02-21T06:10:34;9.50;;;5.67;;
3683;SDS011;1858;48.716;9.648;2024-02-21T06:13:03;5.27;;;3.87;;
3683;SDS011;1858;48.716;9.648;2024-02-21T06:15:31;6.07;;;5.03;;
3683;SDS011;1858;48.716;9.648;2024-02-21T06:17:59;8.33;;;5.30;;
3683;SDS011;1858;48.716;9.648;2024-02-21T06:20:28;9.53;;;4.10;;
3683;SDS011;1858;48.716;9.648;2024-02-21T06:22:56;5.27;;;3.77;;
3683;SDS011;1858;48.716;9.648;2024-02-21T06:25:25;5.10;;;4.17;;
3683;SDS011;1858;48.716;9.648;2024-02-21T06:27:53;7.57;;;4.40;;
3683;SDS011;1858;48.716;9.648;2024-02-21T06:30:22;8.93;;;4.40;;
3683;SDS011;1858;48.716;9.648;2024-02-21T06:32:50;5.63;;;4.87;;
3683;SDS011;1858;48.716;9.648;2024-02-21T06:35:18;9.63;;;5.40;;
3683;SDS011;1858;48.716;9.648;2024-02-21T06:37:47;6.43;;;4.80;;
3683;SDS011;1858;48.716;9.648;2024-02-21T06:40:17;8.23;;;4.50;;
3683;SDS011;1858;48.716;9.648;2024-02-21T06:42:47;12.23;;;4.57;;
3683;SDS011;1858;48.716;9.648;2024-02-21T06:45:16;7.10;;;4.13;;
3683;SDS011;1858;48.716;9.648;2024-02-21T06:47:44;8.23;;;4.50;;
3683;SDS011;1858;48.716;9.648;2024-02-21T06:50:13;6.50;;;4.30;;
3683;SDS011;1858;48.716;9.648;2024-02-21T06:52:43;10.97;;;4.43;;
3683;SDS011;1858;48.716;9.648;2024-02-21T06:55:12;8.20;;;4.37;;
3683;SDS011;1858;48.716;9.648;2024-02-21T06:57:40;10.10;;;4.83;;
3683;SDS011;1858;48.716;9.648;2024-02-21T07:00:08;7.53;;;4.20;;
3683;SDS011;1858;48.716;9.648;2024-02-21T07:05:18;7.17;;;4.47;;
3683;SDS011;1858;48.716;9.648;2024-02-21T07:10:14;8.47;;;4.47;;
3683;SDS011;1858;48.716;9.648;2024-02-21T07:12:43;6.50;;;4.83;;
3683;SDS011;1858;48.716;9.648;2024-02-21T07:15:11;6.07;;;4.87;;
3683;SDS011;1858;48.716;9.648;2024-02-21T07:17:39;8.53;;;4.00;;
3683;SDS011;1858;48.716;9.648;2024-02-21T07:20:08;8.33;;;4.73;;
3683;SDS011;1858;48.716;9.648;2024-02-21T08:22:04;6.90;;;3.40;;
3683;SDS011;1858;48.716;9.648;2024-02-21T08:34:24;5.63;;;4.10;;
3683;SDS011;1858;48.716;9.648;2024-02-21T08:36:52;4.43;;;2.90;;
3683;SDS011;1858;48.716;9.648;2024-02-21T08:42:09;6.43;;;3.00;;
3683;SDS011;1858;48.716;9.648;2024-02-21T08:44:37;7.10;;;3.30;;
3683;SDS011;1858;48.716;9.648;2024-02-21T09:51:35;4.20;;;2.50;;
3683;SDS011;1858;48.716;9.648;2024-02-21T09:54:07;4.47;;;2.57;;
3683;SDS011;1858;48.716;9.648;2024-02-21T09:56:35;6.20;;;2.10;;
3683;SDS011;1858;48.716;9.648;2024-02-21T09:59:04;3.83;;;2.17;;
3683;SDS011;1858;48.716;9.648;2024-02-21T10:01:33;4.10;;;2.33;;
3683;SDS011;1858;48.716;9.648;2024-02-21T10:04:01;3.80;;;2.17;;
3683;SDS011;1858;48.716;9.648;2024-02-21T10:06:31;6.43;;;1.87;;
3683;SDS011;1858;48.716;9.648;2024-02-21T10:09:01;6.40;;;2.03;;
3683;SDS011;1858;48.716;9.648;2024-02-21T10:14:07;9.40;;;2.80;;
3683;SDS011;1858;48.716;9.648;2024-02-21T10:16:35;3.40;;;2.45;;
3683;SDS011;1858;48.716;9.648;2024-02-21T10:23:59;9.17;;;2.40;;
3683;SDS011;1858;48.716;9.648;2024-02-21T10:26:27;4.33;;;2.33;;
3683;SDS011;1858;48.716;9.648;2024-02-21T10:28:56;10.03;;;1.93;;
3683;SDS011;1858;48.716;9.648;2024-02-21T10:31:25;3.47;;;2.13;;
3683;SDS011;1858;48.716;9.648;2024-02-21T10:33:55;9.80;;;2.33;;
3683;SDS011;1858;48.716;9.648;2024-02-21T10:36:44;4.67;;;1.80;;
3683;SDS011;1858;48.716;9.648;2024-02-21T10:39:13;7.00;;;3.13;;
3683;SDS011;1858;48.716;9.648;2024-02-21T10:41:41;3.47;;;1.90;;
3683;SDS011;1858;48.716;9.648;2024-02-21T10:44:11;3.90;;;1.93;;
3683;SDS011;1858;48.716;9.648;2024-02-21T10:46:40;6.33;;;2.00;;
3683;SDS011;1858;48.716;9.648;2024-02-21T10:49:10;3.27;;;2.10;;
3683;SDS011;1858;48.716;9.648;2024-02-21T10:51:44;3.13;;;1.97;;
3683;SDS011;1858;48.716;9.648;2024-02-21T10:57:04;4.03;;;2.53;;
3683;SDS011;1858;48.716;9.648;2024-02-21T10:59:34;4.77;;;2.07;;
3683;SDS011;1858;48.716;9.648;2024-02-21T11:02:04;7.27;;;2.90;;
3683;SDS011;1858;48.716;9.648;2024-02-21T11:04:33;7.17;;;2.07;;
3683;SDS011;1858;48.716;9.648;2024-02-21T11:07:08;11.90;;;2.00;;
3683;SDS011;1858;48.716;9.648;2024-02-21T11:09:33;5.20;;;2.10;;
3683;SDS011;1858;48.716;9.648;2024-02-21T11:12:05;6.20;;;2.10;;
3683;SDS011;1858;48.716;9.648;2024-02-21T11:14:37;4.97;;;2.23;;
3683;SDS011;1858;48.716;9.648;2024-02-21T11:17:15;16.20;;;3.10;;
3683;SDS011;1858;48.716;9.648;2024-02-21T11:19:45;3.53;;;1.73;;
3683;SDS011;1858;48.716;9.648;2024-02-21T11:22:17;6.27;;;1.57;;
3683;SDS011;1858;48.716;9.648;2024-02-21T11:24:49;5.20;;;1.90;;
3683;SDS011;1858;48.716;9.648;2024-02-21T11:27:20;2.83;;;1.97;;
3683;SDS011;1858;48.716;9.648;2024-02-21T11:29:56;2.50;;;1.53;;
3683;SDS011;1858;48.716;9.648;2024-02-21T11:32:31;5.80;;;2.20;;
3683;SDS011;1858;48.716;9.648;2024-02-21T11:34:59;7.53;;;2.10;;
3683;SDS011;1858;48.716;9.648;2024-02-21T11:37:36;2.50;;;1.60;;
3683;SDS011;1858;48.716;9.648;2024-02-21T11:40:01;6.87;;;2.87;;
3683;SDS011;1858;48.716;9.648;2024-02-21T11:42:30;3.30;;;1.60;;
3683;SDS011;1858;48.716;9.648;2024-02-21T11:44:59;7.13;;;1.93;;
3683;SDS011;1858;48.716;9.648;2024-02-21T11:47:28;4.53;;;2.00;;
3683;SDS011;1858;48.716;9.648;2024-02-21T11:49:57;3.00;;;1.70;;
3683;SDS011;1858;48.716;9.648;2024-02-21T11:52:25;7.40;;;2.50;;
3683;SDS011;1858;48.716;9.648;2024-02-21T11:54:54;9.27;;;2.53;;
3683;SDS011;1858;48.716;9.648;2024-02-21T11:57:24;6.47;;;2.10;;
3683;SDS011;1858;48.716;9.648;2024-02-21T11:59:53;6.10;;;1.80;;
3683;SDS011;1858;48.716;9.648;2024-02-21T12:02:21;9.20;;;2.43;;
3683;SDS011;1858;48.716;9.648;2024-02-21T12:04:50;4.23;;;2.33;;
3683;SDS011;1858;48.716;9.648;2024-02-21T12:07:18;5.67;;;1.77;;
3683;SDS011;1858;48.716;9.648;2024-02-21T12:12:38;3.40;;;2.03;;
3683;SDS011;1858;48.716;9.648;2024-02-21T12:15:07;4.80;;;2.60;;
3683;SDS011;1858;48.716;9.648;2024-02-21T12:17:36;7.93;;;2.30;;
3683;SDS011;1858;48.716;9.648;2024-02-21T12:20:06;2.50;;;1.80;;
3683;SDS011;1858;48.716;9.648;2024-02-21T12:22:42;3.00;;;1.90;;
3683;SDS011;1858;48.716;9.648;2024-02-21T12:25:16;4.60;;;1.97;;
3683;SDS011;1858;48.716;9.648;2024-02-21T12:27:46;8.50;;;2.23;;
3683;SDS011;1858;48.716;9.648;2024-02-21T12:30:15;8.40;;;1.70;;
3683;SDS011;1858;48.716;9.648;2024-02-21T12:32:44;5.53;;;2.33;;
3683;SDS011;1858;48.716;9.648;2024-02-21T12:35:15;5.87;;;1.93;;
3683;SDS011;1858;48.716;9.648;2024-02-21T12:37:44;7.77;;;3.50;;
3683;SDS011;1858;48.716;9.648;2024-02-21T12:40:12;5.23;;;1.57;;
3683;SDS011;1858;48.716;9.648;2024-02-21T12:42:41;5.83;;;2.27;;
3683;SDS011;1858;48.716;9.648;2024-02-21T12:45:09;5.30;;;2.00;;
3683;SDS011;1858;48.716;9.648;2024-02-21T12:47:38;2.83;;;1.50;;
3683;SDS011;1858;48.716;9.648;2024-02-21T12:50:07;3.83;;;1.63;;
3683;SDS011;1858;48.716;9.648;2024-02-21T12:52:35;2.87;;;1.83;;
3683;SDS011;1858;48.716;9.648;2024-02-21T12:55:04;2.27;;;1.23;;
3683;SDS011;1858;48.716;9.648;2024-02-21T12:57:33;3.07;;;1.87;;
3683;SDS011;1858;48.716;9.648;2024-02-21T13:00:01;6.50;;;1.60;;
3683;SDS011;1858;48.716;9.648;2024-02-21T13:02:30;10.10;;;1.90;;
3683;SDS011;1858;48.716;9.648;2024-02-21T13:04:58;8.33;;;2.47;;
3683;SDS011;1858;48.716;9.648;2024-02-21T13:07:28;3.50;;;1.43;;
3683;SDS011;1858;48.716;9.648;2024-02-21T13:09:58;5.40;;;1.53;;
3683;SDS011;1858;48.716;9.648;2024-02-21T13:12:27;2.80;;;1.53;;
3683;SDS011;1858;48.716;9.648;2024-02-21T13:14:56;6.03;;;2.17;;
3683;SDS011;1858;48.716;9.648;2024-02-21T13:17:25;2.37;;;1.60;;
3683;SDS011;1858;48.716;9.648;2024-02-21T13:19:55;5.70;;;2.13;;
3683;SDS011;1858;48.716;9.648;2024-02-21T13:22:23;8.43;;;1.97;;
3683;SDS011;1858;48.716;9.648;2024-02-21T13:24:53;10.17;;;2.40;;
3683;SDS011;1858;48.716;9.648;2024-02-21T13:27:21;2.33;;;1.70;;
3683;SDS011;1858;48.716;9.648;2024-02-21T13:29:50;3.10;;;1.47;;
3683;SDS011;1858;48.716;9.648;2024-02-21T13:32:19;3.27;;;1.43;;
3683;SDS011;1858;48.716;9.648;2024-02-21T13:34:48;2.23;;;1.50;;
3683;SDS011;1858;48.716;9.648;2024-02-21T13:37:18;3.07;;;1.00;;
3683;SDS011;1858;48.716;9.648;2024-02-21T13:39:46;1.67;;;1.10;;
3683;SDS011;1858;48.716;9.648;2024-02-21T13:42:14;4.27;;;1.30;;
3683;SDS011;1858;48.716;9.648;2024-02-21T13:44:43;3.40;;;1.70;;
3683;SDS011;1858;48.716;9.648;2024-02-21T13:47:15;6.33;;;1.77;;
3683;SDS011;1858;48.716;9.648;2024-02-21T13:49:43;3.13;;;1.60;;
3683;SDS011;1858;48.716;9.648;2024-02-21T13:52:12;2.67;;;1.60;;
3683;SDS011;1858;48.716;9.648;2024-02-21T13:54:41;3.10;;;1.43;;
3683;SDS011;1858;48.716;9.648;2024-02-21T13:57:09;2.30;;;1.20;;
3683;SDS011;1858;48.716;9.648;2024-02-21T13:59:37;4.70;;;1.70;;
3683;SDS011;1858;48.716;9.648;2024-02-21T14:02:06;4.20;;;1.43;;
3683;SDS011;1858;48.716;9.648;2024-02-21T14:04:35;3.87;;;1.87;;
3683;SDS011;1858;48.716;9.648;2024-02-21T14:07:03;3.77;;;1.60;;
3683;SDS011;1858;48.716;9.648;2024-02-21T14:09:31;2.13;;;1.30;;
3683;SDS011;1858;48.716;9.648;2024-02-21T14:12:00;3.50;;;1.90;;
3683;SDS011;1858;48.716;9.648;2024-02-21T14:14:29;5.90;;;1.30;;
3683;SDS011;1858;48.716;9.648;2024-02-21T14:19:47;3.07;;;2.00;;
3683;SDS011;1858;48.716;9.648;2024-02-21T14:22:15;4.53;;;1.47;;
3683;SDS011;1858;48.716;9.648;2024-02-21T14:24:44;4.57;;;2.17;;
3683;SDS011;1858;48.716;9.648;2024-02-21T14:27:13;5.03;;;1.77;;
3683;SDS011;1858;48.716;9.648;2024-02-21T14:29:41;2.37;;;1.37;;
3683;SDS011;1858;48.716;9.648;2024-02-21T14:32:10;4.40;;;1.63;;
3683;SDS011;1858;48.716;9.648;2024-02-21T14:34:40;5.10;;;1.77;;
3683;SDS011;1858;48.716;9.648;2024-02-21T14:37:08;6.30;;;2.87;;
3683;SDS011;1858;48.716;9.648;2024-02-21T14:39:37;2.37;;;1.20;;
3683;SDS011;1858;48.716;9.648;2024-02-21T14:42:07;3.30;;;1.70;;
3683;SDS011;1858;48.716;9.648;2024-02-21T14:44:38;3.30;;;1.63;;
3683;SDS011;1858;48.716;9.648;2024-02-21T14:47:07;2.63;;;1.50;;
3683;SDS011;1858;48.716;9.648;2024-02-21T14:49:36;3.40;;;1.60;;
3683;SDS011;1858;48.716;9.648;2024-02-21T14:52:04;3.90;;;1.50;;
3683;SDS011;1858;48.716;9.648;2024-02-21T14:54:33;3.10;;;1.10;;
3683;SDS011;1858;48.716;9.648;2024-02-21T14:57:01;4.87;;;1.50;;
3683;SDS011;1858;48.716;9.648;2024-02-21T15:02:19;6.07;;;1.83;;
3683;SDS011;1858;48.716;9.648;2024-02-21T15:04:48;4.53;;;1.30;;
3683;SDS011;1858;48.716;9.648;2024-02-21T15:07:19;3.30;;;1.77;;
3683;SDS011;1858;48.716;9.648;2024-02-21T15:09:49;5.53;;;1.90;;
3683;SDS011;1858;48.716;9.648;2024-02-21T15:12:18;7.10;;;1.93;;
3683;SDS011;1858;48.716;9.648;2024-02-21T15:14:46;2.70;;;1.60;;
3683;SDS011;1858;48.716;9.648;2024-02-21T15:17:14;3.77;;;1.70;;
3683;SDS011;1858;48.716;9.648;2024-02-21T15:22:38;5.27;;;1.70;;
3683;SDS011;1858;48.716;9.648;2024-02-21T15:25:03;3.27;;;1.90;;
3683;SDS011;1858;48.716;9.648;2024-02-21T15:27:31;4.90;;;1.80;;
3683;SDS011;1858;48.716;9.648;2024-02-21T15:30:02;2.00;;;1.03;;
3683;SDS011;1858;48.716;9.648;2024-02-21T15:32:30;5.87;;;2.13;;
3683;SDS011;1858;48.716;9.648;2024-02-21T15:34:59;4.27;;;1.60;;
3683;SDS011;1858;48.716;9.648;2024-02-21T15:37:27;4.47;;;1.97;;
3683;SDS011;1858;48.716;9.648;2024-02-21T15:39:56;4.17;;;1.67;;
3683;SDS011;1858;48.716;9.648;2024-02-21T15:42:24;4.87;;;2.03;;
3683;SDS011;1858;48.716;9.648;2024-02-21T15:44:52;2.33;;;1.30;;
3683;SDS011;1858;48.716;9.648;2024-02-21T15:47:21;3.07;;;1.63;;
3683;SDS011;1858;48.716;9.648;2024-02-21T15:49:50;3.37;;;1.63;;
3683;SDS011;1858;48.716;9.648;2024-02-21T15:52:18;3.10;;;1.70;;
3683;SDS011;1858;48.716;9.648;2024-02-21T15:54:48;7.30;;;1.63;;
3683;SDS011;1858;48.716;9.648;2024-02-21T15:57:16;4.00;;;1.83;;
3683;SDS011;1858;48.716;9.648;2024-02-21T16:09:38;6.00;;;1.80;;
3683;SDS011;1858;48.716;9.648;2024-02-21T16:12:09;5.00;;;1.70;;
3683;SDS011;1858;48.716;9.648;2024-02-21T16:14:37;4.95;;;1.70;;
3683;SDS011;1858;48.716;9.648;2024-02-21T16:17:06;7.97;;;1.67;;
3683;SDS011;1858;48.716;9.648;2024-02-21T16:19:34;9.33;;;2.07;;
3683;SDS011;1858;48.716;9.648;2024-02-21T16:22:03;4.47;;;1.70;;
3683;SDS011;1858;48.716;9.648;2024-02-21T16:24:31;5.60;;;2.15;;
3683;SDS011;1858;48.716;9.648;2024-02-21T16:27:00;6.47;;;2.20;;
3683;SDS011;1858;48.716;9.648;2024-02-21T16:29:30;12.27;;;2.90;;
3683;SDS011;1858;48.716;9.648;2024-02-21T16:31:58;10.33;;;2.63;;
3683;SDS011;1858;48.716;9.648;2024-02-21T16:34:27;5.27;;;2.40;;
3683;SDS011;1858;48.716;9.648;2024-02-21T16:36:56;4.20;;;1.67;;
3683;SDS011;1858;48.716;9.648;2024-02-21T16:39:25;7.00;;;2.63;;
3683;SDS011;1858;48.716;9.648;2024-02-21T16:41:54;5.17;;;2.53;;
3683;SDS011;1858;48.716;9.648;2024-02-21T16:44:24;4.73;;;2.23;;
3683;SDS011;1858;48.716;9.648;2024-02-21T16:46:57;5.30;;;1.70;;
3683;SDS011;1858;48.716;9.648;2024-02-21T16:49:22;8.83;;;2.70;;
3683;SDS011;1858;48.716;9.648;2024-02-21T16:51:52;13.47;;;3.93;;
3683;SDS011;1858;48.716;9.648;2024-02-21T16:54:21;3.77;;;2.40;;
3683;SDS011;1858;48.716;9.648;2024-02-21T16:56:52;3.53;;;1.30;;
3683;SDS011;1858;48.716;9.648;2024-02-21T16:59:20;7.30;;;2.60;;
3683;SDS011;1858;48.716;9.648;2024-02-21T17:01:48;5.37;;;2.77;;
3683;SDS011;1858;48.716;9.648;2024-02-21T17:04:18;4.07;;;1.83;;
3683;SDS011;1858;48.716;9.648;2024-02-21T17:06:47;34.70;;;5.03;;
3683;SDS011;1858;48.716;9.648;2024-02-21T17:09:15;15.30;;;6.27;;
3683;SDS011;1858;48.716;9.648;2024-02-21T17:11:44;10.73;;;3.37;;
3683;SDS011;1858;48.716;9.648;2024-02-21T17:14:12;5.40;;;2.00;;
3683;SDS011;1858;48.716;9.648;2024-02-21T17:16:41;6.60;;;2.30;;
3683;SDS011;1858;48.716;9.648;2024-02-21T17:19:09;4.23;;;2.33;;
3683;SDS011;1858;48.716;9.648;2024-02-21T17:21:38;9.63;;;2.90;;
3683;SDS011;1858;48.716;9.648;2024-02-21T17:24:06;5.13;;;2.40;;
3683;SDS011;1858;48.716;9.648;2024-02-21T17:26:35;7.20;;;2.70;;
3683;SDS011;1858;48.716;9.648;2024-02-21T17:29:03;3.90;;;2.70;;
3683;SDS011;1858;48.716;9.648;2024-02-21T17:31:31;8.47;;;2.80;;
3683;SDS011;1858;48.716;9.648;2024-02-21T17:43:50;7.37;;;2.90;;
3683;SDS011;1858;48.716;9.648;2024-02-21T17:46:19;5.33;;;2.70;;
3683;SDS011;1858;48.716;9.648;2024-02-21T17:48:48;4.93;;;2.10;;
3683;SDS011;1858;48.716;9.648;2024-02-21T17:51:16;6.90;;;2.13;;
3683;SDS011;1858;48.716;9.648;2024-02-21T17:53:45;5.03;;;2.97;;
3683;SDS011;1858;48.716;9.648;2024-02-21T17:56:13;2.70;;;2.10;;
3683;SDS011;1858;48.716;9.648;2024-02-21T17:58:42;2.50;;;1.47;;
3683;SDS011;1858;48.716;9.648;2024-02-21T18:01:10;2.73;;;1.90;;
3683;SDS011;1858;48.716;9.648;2024-02-21T18:03:38;9.37;;;2.33;;
3683;SDS011;1858;48.716;9.648;2024-02-21T18:06:07;4.10;;;2.00;;
3683;SDS011;1858;48.716;9.648;2024-02-21T18:08:36;7.20;;;2.23;;
3683;SDS011;1858;48.716;9.648;2024-02-21T18:14:09;2.90;;;1.93;;
3683;SDS011;1858;48.716;9.648;2024-02-21T18:16:38;3.53;;;2.00;;
3683;SDS011;1858;48.716;9.648;2024-02-21T18:21:54;3.00;;;1.90;;
3683;SDS011;1858;48.716;9.648;2024-02-21T18:24:22;3.73;;;2.03;;
3683;SDS011;1858;48.716;9.648;2024-02-21T18:26:50;2.30;;;1.50;;
3683;SDS011;1858;48.716;9.648;2024-02-21T18:29:19;2.30;;;1.53;;
3683;SDS011;1858;48.716;9.648;2024-02-21T18:31:48;3.53;;;1.47;;
3683;SDS011;1858;48.716;9.648;2024-02-21T18:34:17;2.93;;;1.80;;
3683;SDS011;1858;48.716;9.648;2024-02-21T18:39:33;2.10;;;1.43;;
3683;SDS011;1858;48.716;9.648;2024-02-21T18:42:02;2.50;;;1.83;;
3683;SDS011;1858;48.716;9.648;2024-02-21T18:44:31;4.13;;;2.07;;
3683;SDS011;1858;48.716;9.648;2024-02-21T18:46:59;7.23;;;3.10;;